Time;durP1;ratioP1;P1;durP2;ratioP2;P2;SDS_P1;SDS_P2;PMS_P1;PMS_P2;Temp;Humidity;BMP_temperature;BMP_pressure;BME280_temperature;BME280_humidity;BME280_pressure;Samples;Min_cycle;Max_cycle;Signal;HPM_P1;HPM_P2
2021/12/18 00:00:19;;;;;;;;;;;;;;;;;;1003562;29;1004;-28
2021/12/18 00:00:50;;;;;;;;;;;;;;;;;;1003084;29;1348;-28
2021/12/18 00:01:21;;;;;;;;;;;;;;;;;;1008027;29;1104;-28
2021/12/18 00:01:52;;;;;;;;;;;;;;;;;;1008152;29;1105;-28
2021/12/18 00:02:23;;;;;;;;;;;;;;;;;;1007549;29;1285;-27
2021/12/18 00:02:53;;;;;;;;;;;;;;;;;;1008238;29;990;-28
2021/12/18 00:03:24;;;;;;;;;;;;;;;;;;999836;29;1069;-28
2021/12/18 00:03:55;;;;;;;;;;;;;;;;;;999716;29;1023;-28
2021/12/18 00:04:25;;;;;;;;;;;;;;;;;;992258;29;1000;-27
2021/12/18 00:04:56;;;;;;;;;;;;;;;;;;992282;29;922;-28
2021/12/18 00:05:26;;;;;;;;;;;;;;;;;;999808;29;1034;-28
2021/12/18 00:05:57;;;;;;;;;;;;;;;;;;999722;29;1353;-27
2021/12/18 00:06:27;;;;;;;;;;;;;;;;;;1008060;29;1007;-27
2021/12/18 00:06:58;;;;;;;;;;;;;;;;;;1008160;29;1126;-28
2021/12/18 00:07:28;;;;;;;;;;;;;;;;;;1007725;29;1183;-28
2021/12/18 00:07:59;;;;;;;;;;;;;;;;;;1008278;29;868;-27
2021/12/18 00:08:30;;;;;;;;;;;;;;;;;;1008257;29;908;-28
2021/12/18 00:09:01;;;;;;;;;;;;;;;;;;1003140;29;1503;-27
2021/12/18 00:09:32;;;;;;;;;;;;;;;;;;1003528;29;1602;-27
2021/12/18 00:10:04;;;;;;;;;;;;;;;;;;999413;29;1586;-27
2021/12/18 00:10:35;;;;;;;;;;;;;;;;;;999868;29;1140;-27
2021/12/18 00:11:06;;;;;;;;;;;;;;;;;;1003761;29;1177;-27
2021/12/18 00:11:36;;;;;;;;;;;;;;;;;;1003272;29;1455;-27
2021/12/18 00:12:07;;;;;;;;;;;;;;;;;;1008253;29;1083;-27
2021/12/18 00:12:41;;;;;;;;;;;;;;;;;;1007729;29;1424;-27
2021/12/18 00:13:12;;;;;;;;;;;;;;;;;;1007337;29;1024;-27
2021/12/18 00:13:42;;;;;;;;;;;;;;;;;;1003484;29;1047;-27
2021/12/18 00:14:12;;;;;;;;;;;;;;;;;;1002815;29;1499;-27
2021/12/18 00:14:43;;;;;;;;;;;;;;;;;;1003604;29;1126;-27
2021/12/18 00:15:14;;;;;;;;;;;;;;;;;;1003598;29;1971;-27
2021/12/18 00:15:44;;;;;;;;;;;;;;;;;;1007012;29;1087;-28
2021/12/18 00:16:14;;;;;;;;;;;;;;;;;;1007484;29;1008;-27
2021/12/18 00:16:45;;;;;;;;;;;;;;;;;;1007249;29;1751;-27
2021/12/18 00:17:15;;;;;;;;;;;;;;;;;;1007856;29;1046;-27
2021/12/18 00:17:46;;;;;;;;;;;;;;;;;;1007994;29;1142;-27
2021/12/18 00:18:17;;;;;;;;;;;;;;;;;;1007543;29;1270;-27
2021/12/18 00:18:51;;;;;;;;;;;;;;;;;;1007235;29;1074;-27
2021/12/18 00:19:26;;;;;;;;;;;;;;;;;;1007003;29;1416;-27
2021/12/18 00:19:57;;;;;;;;;;;;;;;;;;1003082;29;1132;-26
2021/12/18 00:20:28;;;;;;;;;;;;;;;;;;1003716;29;969;-27
2021/12/18 00:20:59;;;;;;;;;;;;;;;;;;1003479;29;1057;-27
2021/12/18 00:21:31;;;;;;;;;;;;;;;;;;995938;29;1062;-27
2021/12/18 00:22:02;;;;;;;;;;;;;;;;;;991643;29;1305;-28
2021/12/18 00:22:32;;;;;;;;;;;;;;;;;;991951;29;1194;-28
2021/12/18 00:23:02;;;;;;;;;;;;;;;;;;992572;29;1093;-28
2021/12/18 00:23:33;;;;;;;;;;;;;;;;;;999772;29;1659;-27
2021/12/18 00:24:04;;;;;;;;;;;;;;;;;;1003546;29;1124;-27
2021/12/18 00:24:35;;;;;;;;;;;;;;;;;;1003248;29;1118;-28
2021/12/18 00:25:06;;;;;;;;;;;;;;;;;;1003317;29;1594;-27
2021/12/18 00:25:37;;;;;;;;;;;;;;;;;;999827;29;997;-27
2021/12/18 00:26:08;;;;;;;;;;;;;;;;;;1003390;29;1437;-27
2021/12/18 00:26:38;;;;;;;;;;;;;;;;;;999511;29;1056;-27
2021/12/18 00:27:08;;;;;;;;;;;;;;;;;;995841;29;1389;-27
2021/12/18 00:27:39;;;;;;;;;;;;;;;;;;991855;29;1474;-27
2021/12/18 00:28:10;;;;;;;;;;;;;;;;;;999648;29;997;-27
2021/12/18 00:28:40;;;;;;;;;;;;;;;;;;1004143;29;1755;-27
2021/12/18 00:29:11;;;;;;;;;;;;;;;;;;1007158;29;996;-27
2021/12/18 00:29:43;;;;;;;;;;;;;;;;;;1007434;29;1062;-27
2021/12/18 00:30:14;;;;;;;;;;;;;;;;;;999440;29;1060;-27
2021/12/18 00:30:44;;;;;;;;;;;;;;;;;;995935;29;963;-27
2021/12/18 00:31:15;;;;;;;;;;;;;;;;;;995730;29;1407;-25
2021/12/18 00:31:45;;;;;;;;;;;;;;;;;;995673;29;1067;-27
2021/12/18 00:32:16;;;;;;;;;;;;;;;;;;1003500;29;1042;-27
2021/12/18 00:32:46;;;;;;;;;;;;;;;;;;1006807;29;1059;-27
2021/12/18 00:33:17;;;;;;;;;;;;;;;;;;1006988;29;1431;-27
2021/12/18 00:33:47;;;;;;;;;;;;;;;;;;1011423;29;884;-28
2021/12/18 00:34:18;;;;;;;;;;;;;;;;;;1011703;29;1034;-27
2021/12/18 00:34:49;;;;;;;;;;;;;;;;;;1010873;29;1026;-28
2021/12/18 00:35:20;;;;;;;;;;;;;;;;;;1007077;29;1908;-28
2021/12/18 00:35:51;;;;;;;;;;;;;;;;;;1003128;29;1206;-27
2021/12/18 00:36:21;;;;;;;;;;;;;;;;;;1003460;29;1071;-27
2021/12/18 00:36:52;;;;;;;;;;;;;;;;;;999030;29;1238;-26
2021/12/18 00:37:23;;;;;;;;;;;;;;;;;;999656;29;1023;-27
2021/12/18 00:37:53;;;;;;;;;;;;;;;;;;1003370;29;1138;-27
2021/12/18 00:38:28;;;;;;;;;;;;;;;;;;1003456;29;1363;-28
2021/12/18 00:38:59;;;;;;;;;;;;;;;;;;1007841;29;1030;-28
2021/12/18 00:39:33;;;;;;;;;;;;;;;;;;1006891;29;1697;-27
2021/12/18 00:40:08;;;;;;;;;;;;;;;;;;1007321;29;935;-28
2021/12/18 00:41:00;;;;;;;;;;;;;;;;;;1006924;29;1270;-26
2021/12/18 00:43:02;;;;;;;;;;;;;;;;;;1011812;29;1062;-27
2021/12/18 00:43:37;;;;;;;;;;;;;;;;;;1011479;29;1211;-27
2021/12/18 00:44:08;;;;;;;;;;;;;;;;;;1007286;29;1096;-27
2021/12/18 00:44:39;;;;;;;;;;;;;;;;;;1007207;29;992;-27
2021/12/18 00:45:10;;;;;;;;;;;;;;;;;;1007299;29;1019;-28
2021/12/18 00:45:41;;;;;;;;;;;;;;;;;;1000732;29;1068;-28
2021/12/18 00:46:11;;;;;;;;;;;;;;;;;;1006871;29;1475;-28
2021/12/18 00:46:43;;;;;;;;;;;;;;;;;;1007348;29;1253;-28
2021/12/18 00:47:13;;;;;;;;;;;;;;;;;;1007180;29;1141;-27
2021/12/18 00:47:44;;;;;;;;;;;;;;;;;;1011950;29;904;-28
2021/12/18 00:48:15;;;;;;;;;;;;;;;;;;1011976;29;908;-27
2021/12/18 00:48:45;;;;;;;;;;;;;;;;;;1006969;29;1114;-28
2021/12/18 00:49:17;;;;;;;;;;;;;;;;;;1011095;29;998;-28
2021/12/18 00:49:47;;;;;;;;;;;;;;;;;;1011241;29;1011;-28
2021/12/18 00:50:20;;;;;;;;;;;;;;;;;;1011120;29;925;-27
2021/12/18 00:50:50;;;;;;;;;;;;;;;;;;1011080;29;1195;-27
2021/12/18 00:51:20;;;;;;;;;;;;;;;;;;1011671;29;1434;-27
2021/12/18 00:51:51;;;;;;;;;;;;;;;;;;1011774;29;967;-28
2021/12/18 00:52:23;;;;;;;;;;;;;;;;;;1012027;29;892;-27
2021/12/18 00:52:53;;;;;;;;;;;;;;;;;;1011385;29;1401;-28
2021/12/18 00:53:24;;;;;;;;;;;;;;;;;;1011918;29;998;-28
2021/12/18 00:53:54;;;;;;;;;;;;;;;;;;1011595;29;1094;-28
2021/12/18 00:54:26;;;;;;;;;;;;;;;;;;1007313;29;1039;-28
2021/12/18 00:54:57;;;;;;;;;;;;;;;;;;1007296;29;911;-27
2021/12/18 00:55:28;;;;;;;;;;;;;;;;;;1010836;29;1973;-28
2021/12/18 00:55:58;;;;;;;;;;;;;;;;;;1010663;29;1216;-28
2021/12/18 00:56:29;;;;;;;;;;;;;;;;;;1007056;29;1566;-27
2021/12/18 00:57:00;;;;;;;;;;;;;;;;;;1006945;29;1104;-27
2021/12/18 00:57:30;;;;;;;;;;;;;;;;;;1003306;29;991;-27
2021/12/18 00:58:01;;;;;;;;;;;;;;;;;;1003397;29;1117;-27
2021/12/18 00:58:32;;;;;;;;;;;;;;;;;;1011173;29;953;-28
2021/12/18 00:59:02;;;;;;;;;;;;;;;;;;1010904;29;1099;-27
2021/12/18 00:59:35;;;;;;;;;;;;;;;;;;1010689;29;1513;-27
2021/12/18 01:00:07;;;;;;;;;;;;;;;;;;1015111;29;966;-28
2021/12/18 01:00:38;;;;;;;;;;;;;;;;;;1014757;29;1099;-27
2021/12/18 01:01:11;;;;;;;;;;;;;;;;;;1014717;29;1601;-27
2021/12/18 01:01:42;;;;;;;;;;;;;;;;;;1015058;29;964;-28
2021/12/18 01:02:13;;;;;;;;;;;;;;;;;;1014929;29;1042;-28
2021/12/18 01:02:44;;;;;;;;;;;;;;;;;;1011193;29;1050;-27
2021/12/18 01:03:18;;;;;;;;;;;;;;;;;;1010872;29;1359;-27
2021/12/18 01:03:49;;;;;;;;;;;;;;;;;;1011097;29;985;-28
2021/12/18 01:04:19;;;;;;;;;;;;;;;;;;1011412;29;824;-27
2021/12/18 01:04:50;;;;;;;;;;;;;;;;;;1011374;29;1646;-27
2021/12/18 01:05:20;;;;;;;;;;;;;;;;;;1010947;29;955;-27
2021/12/18 01:05:51;;;;;;;;;;;;;;;;;;1010622;29;1402;-27
2021/12/18 01:06:21;;;;;;;;;;;;;;;;;;1010583;29;1170;-27
2021/12/18 01:06:52;;;;;;;;;;;;;;;;;;1011017;29;1396;-28
2021/12/18 01:07:22;;;;;;;;;;;;;;;;;;1011129;29;1406;-27
2021/12/18 01:07:56;;;;;;;;;;;;;;;;;;1011695;29;1097;-28
2021/12/18 01:08:26;;;;;;;;;;;;;;;;;;1011655;29;1213;-27
2021/12/18 01:08:57;;;;;;;;;;;;;;;;;;1014735;29;1282;-27
2021/12/18 01:09:48;;;;;;;;;;;;;;;;;;1011105;29;1072;-27
2021/12/18 01:11:50;;;;;;;;;;;;;;;;;;1011414;29;963;-27
2021/12/18 01:12:04;;;;;;;;;;;;;;;;;;1006336;29;1553;-28
2021/12/18 01:12:40;;;;;;;;;;;;;;;;;;1010375;29;1293;-27
2021/12/18 01:13:15;;;;;;;;;;;;;;;;;;1010968;29;1053;-27
2021/12/18 01:14:09;;;;;;;;;;;;;;;;;;1010859;29;1223;-26
2021/12/18 01:14:52;;;;;;;;;;;;;;;;;;1010976;29;1525;-27
2021/12/18 01:15:29;;;;;;;;;;;;;;;;;;1004714;29;1911;-27
2021/12/18 01:16:10;;;;;;;;;;;;;;;;;;1007317;29;1042;-27
2021/12/18 01:22:43;;;;;;;;;;;;;;;;;;1007164;29;1656;-27
2021/12/18 01:23:12;;;;;;;;;;;;;;;;;;1011166;29;1439;-28
2021/12/18 01:23:42;;;;;;;;;;;;;;;;;;1011672;29;1094;-28
2021/12/18 01:24:12;;;;;;;;;;;;;;;;;;1011794;29;927;-28
2021/12/18 01:24:43;;;;;;;;;;;;;;;;;;1011284;29;1169;-28
2021/12/18 01:25:18;;;;;;;;;;;;;;;;;;1006813;29;1129;-28
2021/12/18 01:25:49;;;;;;;;;;;;;;;;;;1006781;29;1272;-28
2021/12/18 01:26:20;;;;;;;;;;;;;;;;;;1007051;29;1071;-28
2021/12/18 01:26:52;;;;;;;;;;;;;;;;;;996966;29;976;-28
2021/12/18 01:27:22;;;;;;;;;;;;;;;;;;1003045;29;1817;-28
2021/12/18 01:27:53;;;;;;;;;;;;;;;;;;1003166;29;931;-28
2021/12/18 01:28:23;;;;;;;;;;;;;;;;;;1003697;29;790;-28
2021/12/18 01:28:54;;;;;;;;;;;;;;;;;;1011441;29;1128;-28
2021/12/18 01:29:26;;;;;;;;;;;;;;;;;;1003167;29;1036;-28
2021/12/18 01:29:57;;;;;;;;;;;;;;;;;;1003108;29;896;-27
2021/12/18 01:30:27;;;;;;;;;;;;;;;;;;1003444;29;948;-28
2021/12/18 01:30:59;;;;;;;;;;;;;;;;;;996002;29;1678;-28
2021/12/18 01:31:30;;;;;;;;;;;;;;;;;;1002924;29;1433;-28
2021/12/18 01:32:01;;;;;;;;;;;;;;;;;;1006771;29;978;-28
2021/12/18 01:32:31;;;;;;;;;;;;;;;;;;994604;29;1107;-28
2021/12/18 01:33:02;;;;;;;;;;;;;;;;;;991794;29;1036;-27
2021/12/18 01:33:33;;;;;;;;;;;;;;;;;;992030;29;1123;-28
2021/12/18 01:34:03;;;;;;;;;;;;;;;;;;992135;29;1191;-28
2021/12/18 01:34:33;;;;;;;;;;;;;;;;;;1003421;29;899;-28
2021/12/18 01:35:04;;;;;;;;;;;;;;;;;;1011764;29;947;-28
2021/12/18 01:35:35;;;;;;;;;;;;;;;;;;1011529;29;1907;-27
2021/12/18 01:36:06;;;;;;;;;;;;;;;;;;1003366;29;971;-28
2021/12/18 01:36:36;;;;;;;;;;;;;;;;;;1003207;29;1073;-28
2021/12/18 01:37:07;;;;;;;;;;;;;;;;;;1003344;29;1017;-28
2021/12/18 01:37:40;;;;;;;;;;;;;;;;;;1002748;29;1530;-27
2021/12/18 01:38:11;;;;;;;;;;;;;;;;;;1011550;29;1014;-28
2021/12/18 01:38:42;;;;;;;;;;;;;;;;;;1007171;29;1082;-27
2021/12/18 01:39:12;;;;;;;;;;;;;;;;;;1006901;29;1082;-28
2021/12/18 01:39:43;;;;;;;;;;;;;;;;;;1007131;29;896;-28
2021/12/18 01:40:14;;;;;;;;;;;;;;;;;;995473;29;988;-27
2021/12/18 01:40:45;;;;;;;;;;;;;;;;;;995780;29;826;-28
2021/12/18 01:41:17;;;;;;;;;;;;;;;;;;995797;29;1013;-28
2021/12/18 01:44:37;;;;;;;;;;;;;;;;;;1003173;29;1094;-27
2021/12/18 01:45:09;;;;;;;;;;;;;;;;;;1002647;29;1357;-28
2021/12/18 01:46:01;;;;;;;;;;;;;;;;;;1010022;29;1823;-27
2021/12/18 01:46:46;;;;;;;;;;;;;;;;;;1003248;29;1145;-27
2021/12/18 01:52:33;;;;;;;;;;;;;;;;;;1010319;29;1448;-27
2021/12/18 01:53:03;;;;;;;;;;;;;;;;;;1010768;29;1296;-27
2021/12/18 01:53:34;;;;;;;;;;;;;;;;;;1007032;29;1015;-28
2021/12/18 01:54:05;;;;;;;;;;;;;;;;;;1006979;29;943;-28
2021/12/18 01:54:35;;;;;;;;;;;;;;;;;;1003083;29;996;-27
2021/12/18 01:55:06;;;;;;;;;;;;;;;;;;1003060;29;984;-27
2021/12/18 01:55:38;;;;;;;;;;;;;;;;;;1006986;29;1906;-27
2021/12/18 01:56:09;;;;;;;;;;;;;;;;;;1003396;29;1009;-28
2021/12/18 01:56:39;;;;;;;;;;;;;;;;;;1006481;29;1113;-28
2021/12/18 01:57:10;;;;;;;;;;;;;;;;;;1006993;29;950;-28
2021/12/18 01:57:40;;;;;;;;;;;;;;;;;;1007053;29;1489;-28
2021/12/18 01:58:11;;;;;;;;;;;;;;;;;;1010394;29;1117;-27
2021/12/18 01:58:44;;;;;;;;;;;;;;;;;;1006928;29;1272;-28
2021/12/18 01:59:15;;;;;;;;;;;;;;;;;;1006833;29;1023;-28
2021/12/18 01:59:47;;;;;;;;;;;;;;;;;;1007281;29;828;-27
2021/12/18 02:00:20;;;;;;;;;;;;;;;;;;1003235;29;1051;-28
2021/12/18 02:00:52;;;;;;;;;;;;;;;;;;1002195;29;1411;-27
2021/12/18 02:01:23;;;;;;;;;;;;;;;;;;1002877;29;1273;-27
2021/12/18 02:01:53;;;;;;;;;;;;;;;;;;1000974;29;1260;-28
2021/12/18 02:02:24;;;;;;;;;;;;;;;;;;1006521;29;1333;-28
2021/12/18 02:02:54;;;;;;;;;;;;;;;;;;1007092;29;1343;-28
2021/12/18 02:03:25;;;;;;;;;;;;;;;;;;1006993;29;1505;-27
2021/12/18 02:03:55;;;;;;;;;;;;;;;;;;1011780;29;887;-28
2021/12/18 02:04:26;;;;;;;;;;;;;;;;;;1010818;29;1016;-28
2021/12/18 02:04:57;;;;;;;;;;;;;;;;;;1010625;29;1285;-27
2021/12/18 02:05:27;;;;;;;;;;;;;;;;;;1006893;29;1162;-27
2021/12/18 02:05:58;;;;;;;;;;;;;;;;;;1007206;29;1100;-28
2021/12/18 02:06:29;;;;;;;;;;;;;;;;;;1002478;29;1279;-28
2021/12/18 02:07:00;;;;;;;;;;;;;;;;;;1003172;29;1345;-28
2021/12/18 02:07:30;;;;;;;;;;;;;;;;;;998817;29;1361;-27
2021/12/18 02:08:01;;;;;;;;;;;;;;;;;;999459;29;1095;-28
2021/12/18 02:08:34;;;;;;;;;;;;;;;;;;995511;29;1062;-28
2021/12/18 02:09:05;;;;;;;;;;;;;;;;;;995373;29;1080;-28
2021/12/18 02:10:21;;;;;;;;;;;;;;;;;;1002942;29;978;-28
2021/12/18 02:10:41;;;;;;;;;;;;;;;;;;996832;29;1325;-28
2021/12/18 02:11:25;;;;;;;;;;;;;;;;;;1007024;29;1014;-28
2021/12/18 02:11:58;;;;;;;;;;;;;;;;;;1007107;29;896;-28
2021/12/18 02:12:50;;;;;;;;;;;;;;;;;;1007088;29;922;-28
2021/12/18 02:20:37;;;;;;;;;;;;;;;;;;1003343;29;1104;-28
2021/12/18 02:21:15;;;;;;;;;;;;;;;;;;1003203;29;1012;-28
2021/12/18 02:21:46;;;;;;;;;;;;;;;;;;995266;29;1100;-28
2021/12/18 02:22:18;;;;;;;;;;;;;;;;;;995050;29;1457;-28
2021/12/18 02:22:49;;;;;;;;;;;;;;;;;;994433;29;1127;-28
2021/12/18 02:23:20;;;;;;;;;;;;;;;;;;994513;29;1169;-28
2021/12/18 02:23:50;;;;;;;;;;;;;;;;;;1003126;29;817;-28
2021/12/18 02:24:24;;;;;;;;;;;;;;;;;;1003257;29;1187;-27
2021/12/18 02:24:54;;;;;;;;;;;;;;;;;;1002473;29;1430;-28
2021/12/18 02:25:25;;;;;;;;;;;;;;;;;;1003210;29;1209;-28
2021/12/18 02:25:56;;;;;;;;;;;;;;;;;;999171;29;985;-28
2021/12/18 02:26:26;;;;;;;;;;;;;;;;;;1002550;29;1244;-28
2021/12/18 02:26:58;;;;;;;;;;;;;;;;;;1003290;29;1040;-28
2021/12/18 02:27:30;;;;;;;;;;;;;;;;;;1002798;29;1426;-28
2021/12/18 02:28:00;;;;;;;;;;;;;;;;;;1007090;29;943;-28
2021/12/18 02:28:31;;;;;;;;;;;;;;;;;;1003201;29;966;-28
2021/12/18 02:29:04;;;;;;;;;;;;;;;;;;1002846;29;1397;-28
2021/12/18 02:29:37;;;;;;;;;;;;;;;;;;1002990;29;1058;-28
2021/12/18 02:30:08;;;;;;;;;;;;;;;;;;1004440;29;844;-28
2021/12/18 02:30:39;;;;;;;;;;;;;;;;;;1007029;29;916;-28
2021/12/18 02:31:10;;;;;;;;;;;;;;;;;;1003058;29;973;-28
2021/12/18 02:31:41;;;;;;;;;;;;;;;;;;1003114;29;1016;-28
2021/12/18 02:32:12;;;;;;;;;;;;;;;;;;1003167;29;1150;-27
2021/12/18 02:32:42;;;;;;;;;;;;;;;;;;1002974;29;1404;-28
2021/12/18 02:33:13;;;;;;;;;;;;;;;;;;1010951;29;883;-28
2021/12/18 02:33:44;;;;;;;;;;;;;;;;;;1002984;29;877;-28
2021/12/18 02:34:22;;;;;;;;;;;;;;;;;;995088;29;1525;-27
2021/12/18 02:34:57;;;;;;;;;;;;;;;;;;995424;29;1214;-28
2021/12/18 02:35:29;;;;;;;;;;;;;;;;;;997917;29;1912;-27
2021/12/18 02:36:03;;;;;;;;;;;;;;;;;;1003004;29;1163;-28
2021/12/18 02:36:33;;;;;;;;;;;;;;;;;;1002733;29;1127;-28
2021/12/18 02:37:07;;;;;;;;;;;;;;;;;;1002822;29;1122;-28
2021/12/18 02:37:42;;;;;;;;;;;;;;;;;;1002354;29;936;-28
2021/12/18 02:38:19;;;;;;;;;;;;;;;;;;999302;29;1027;-28
2021/12/18 02:39:06;;;;;;;;;;;;;;;;;;995374;29;1322;-28
2021/12/18 02:39:57;;;;;;;;;;;;;;;;;;999031;29;1111;-28
2021/12/18 02:40:55;;;;;;;;;;;;;;;;;;1000187;29;1333;-28
2021/12/18 02:41:41;;;;;;;;;;;;;;;;;;1003643;29;1015;-28
2021/12/18 02:42:18;;;;;;;;;;;;;;;;;;999518;29;1404;-28
2021/12/18 02:42:51;;;;;;;;;;;;;;;;;;1001124;29;1068;-28
2021/12/18 02:43:25;;;;;;;;;;;;;;;;;;1003509;29;1352;-28
2021/12/18 02:44:00;;;;;;;;;;;;;;;;;;999181;29;1119;-27
2021/12/18 02:44:30;;;;;;;;;;;;;;;;;;999006;29;1151;-27
2021/12/18 02:45:05;;;;;;;;;;;;;;;;;;998908;29;1142;-27
2021/12/18 02:45:36;;;;;;;;;;;;;;;;;;994620;29;1216;-27
2021/12/18 02:46:07;;;;;;;;;;;;;;;;;;984204;30;1461;-28
2021/12/18 02:46:39;;;;;;;;;;;;;;;;;;984836;29;1040;-27
2021/12/18 02:47:10;;;;;;;;;;;;;;;;;;992416;29;1431;-28
2021/12/18 02:47:47;;;;;;;;;;;;;;;;;;1002512;29;1114;-28
2021/12/18 02:48:18;;;;;;;;;;;;;;;;;;1003172;29;1098;-27
2021/12/18 02:48:50;;;;;;;;;;;;;;;;;;1002398;29;1357;-28
2021/12/18 02:49:20;;;;;;;;;;;;;;;;;;1003026;29;958;-28
2021/12/18 02:49:51;;;;;;;;;;;;;;;;;;1002953;29;1063;-28
2021/12/18 02:50:22;;;;;;;;;;;;;;;;;;1003067;29;959;-28
2021/12/18 02:50:53;;;;;;;;;;;;;;;;;;1002970;29;944;-28
2021/12/18 02:51:24;;;;;;;;;;;;;;;;;;1002712;29;1226;-28
2021/12/18 02:51:54;;;;;;;;;;;;;;;;;;995278;29;981;-28
2021/12/18 02:52:29;;;;;;;;;;;;;;;;;;995595;29;1265;-28
2021/12/18 02:53:00;;;;;;;;;;;;;;;;;;998778;29;1029;-28
2021/12/18 02:53:31;;;;;;;;;;;;;;;;;;999948;29;892;-28
2021/12/18 02:54:02;;;;;;;;;;;;;;;;;;1003317;29;1405;-27
2021/12/18 02:54:32;;;;;;;;;;;;;;;;;;1003719;29;1258;-27
2021/12/18 02:55:03;;;;;;;;;;;;;;;;;;1002872;29;964;-28
2021/12/18 02:55:33;;;;;;;;;;;;;;;;;;1002997;29;1912;-28
2021/12/18 02:56:05;;;;;;;;;;;;;;;;;;991594;29;959;-28
2021/12/18 02:56:36;;;;;;;;;;;;;;;;;;991622;29;1380;-28
2021/12/18 02:57:07;;;;;;;;;;;;;;;;;;991362;29;1006;-28
2021/12/18 02:57:38;;;;;;;;;;;;;;;;;;984735;29;1137;-28
2021/12/18 02:58:08;;;;;;;;;;;;;;;;;;991155;29;1496;-27
2021/12/18 02:58:41;;;;;;;;;;;;;;;;;;995455;29;1124;-28
2021/12/18 02:59:12;;;;;;;;;;;;;;;;;;995795;29;1085;-28
2021/12/18 02:59:46;;;;;;;;;;;;;;;;;;999102;29;949;-28
2021/12/18 03:00:17;;;;;;;;;;;;;;;;;;999224;29;1091;-28
2021/12/18 03:00:48;;;;;;;;;;;;;;;;;;999565;29;1092;-28
2021/12/18 03:01:20;;;;;;;;;;;;;;;;;;1003245;29;1056;-28
2021/12/18 03:01:51;;;;;;;;;;;;;;;;;;1002883;29;1066;-27
2021/12/18 03:02:22;;;;;;;;;;;;;;;;;;1003054;29;1034;-28
2021/12/18 03:02:53;;;;;;;;;;;;;;;;;;1003553;29;1104;-28
2021/12/18 03:03:27;;;;;;;;;;;;;;;;;;1002779;29;1144;-28
2021/12/18 03:04:00;;;;;;;;;;;;;;;;;;1002880;29;965;-28
2021/12/18 03:04:34;;;;;;;;;;;;;;;;;;998901;29;1405;-28
2021/12/18 03:05:08;;;;;;;;;;;;;;;;;;999025;29;1089;-27
2021/12/18 03:05:46;;;;;;;;;;;;;;;;;;998826;29;1183;-28
2021/12/18 03:06:55;;;;;;;;;;;;;;;;;;1003799;29;912;-27
2021/12/18 03:07:28;;;;;;;;;;;;;;;;;;1002588;29;1606;-29
2021/12/18 03:08:08;;;;;;;;;;;;;;;;;;1003022;29;944;-28
2021/12/18 03:08:53;;;;;;;;;;;;;;;;;;1002190;29;1382;-28
2021/12/18 03:22:36;;;;;;;;;;;;;;;;;;995565;29;1080;-28
2021/12/18 03:23:10;;;;;;;;;;;;;;;;;;1003536;29;1599;-27
2021/12/18 03:23:48;;;;;;;;;;;;;;;;;;1002645;29;1108;-28
2021/12/18 03:24:30;;;;;;;;;;;;;;;;;;999077;29;1227;-27
2021/12/18 03:25:09;;;;;;;;;;;;;;;;;;999170;29;976;-28
2021/12/18 03:25:41;;;;;;;;;;;;;;;;;;999032;29;1414;-27
2021/12/18 03:26:13;;;;;;;;;;;;;;;;;;998586;29;1119;-27
2021/12/18 03:26:44;;;;;;;;;;;;;;;;;;998848;29;1311;-28
2021/12/18 03:27:14;;;;;;;;;;;;;;;;;;999030;29;1310;-28
2021/12/18 03:27:45;;;;;;;;;;;;;;;;;;999839;29;947;-28
2021/12/18 03:28:15;;;;;;;;;;;;;;;;;;1003792;29;853;-28
2021/12/18 03:28:46;;;;;;;;;;;;;;;;;;1004103;29;1331;-28
2021/12/18 03:29:17;;;;;;;;;;;;;;;;;;1006911;29;1147;-28
2021/12/18 03:29:47;;;;;;;;;;;;;;;;;;1006266;29;1264;-28
2021/12/18 03:30:18;;;;;;;;;;;;;;;;;;1006838;29;983;-28
2021/12/18 03:30:48;;;;;;;;;;;;;;;;;;1007204;29;852;-27
2021/12/18 03:31:18;;;;;;;;;;;;;;;;;;1007424;29;1043;-28
2021/12/18 03:31:49;;;;;;;;;;;;;;;;;;1006647;29;1451;-28
2021/12/18 03:32:19;;;;;;;;;;;;;;;;;;1006690;29;1244;-27
2021/12/18 03:32:50;;;;;;;;;;;;;;;;;;1002776;29;1086;-28
2021/12/18 03:33:21;;;;;;;;;;;;;;;;;;1002915;29;1128;-28
2021/12/18 03:33:52;;;;;;;;;;;;;;;;;;1002895;29;1401;-28
2021/12/18 03:34:22;;;;;;;;;;;;;;;;;;1003181;29;849;-28
2021/12/18 03:34:53;;;;;;;;;;;;;;;;;;1006709;29;1306;-27
2021/12/18 03:35:23;;;;;;;;;;;;;;;;;;1006161;29;1896;-28
2021/12/18 03:35:54;;;;;;;;;;;;;;;;;;1009624;29;1180;-28
2021/12/18 03:36:26;;;;;;;;;;;;;;;;;;1011241;29;1000;-28
2021/12/18 03:36:57;;;;;;;;;;;;;;;;;;1006858;29;880;-28
2021/12/18 03:37:28;;;;;;;;;;;;;;;;;;1006784;29;870;-28
2021/12/18 03:37:58;;;;;;;;;;;;;;;;;;1006815;29;931;-27
2021/12/18 03:38:29;;;;;;;;;;;;;;;;;;1006991;29;876;-28
2021/12/18 03:39:00;;;;;;;;;;;;;;;;;;1011246;29;986;-28
2021/12/18 03:39:32;;;;;;;;;;;;;;;;;;1011246;29;1018;-28
2021/12/18 03:40:07;;;;;;;;;;;;;;;;;;1011346;29;1002;-28
2021/12/18 03:40:38;;;;;;;;;;;;;;;;;;1010180;29;1308;-28
2021/12/18 03:41:08;;;;;;;;;;;;;;;;;;1006629;29;1089;-28
2021/12/18 03:41:39;;;;;;;;;;;;;;;;;;1006535;29;1268;-28
2021/12/18 03:42:09;;;;;;;;;;;;;;;;;;1006704;29;1390;-28
2021/12/18 03:42:40;;;;;;;;;;;;;;;;;;999117;29;1038;-28
2021/12/18 03:43:11;;;;;;;;;;;;;;;;;;998956;29;958;-28
2021/12/18 03:43:42;;;;;;;;;;;;;;;;;;995404;29;864;-28
2021/12/18 03:44:12;;;;;;;;;;;;;;;;;;991685;29;965;-28
2021/12/18 03:44:43;;;;;;;;;;;;;;;;;;1002989;29;1104;-28
2021/12/18 03:45:14;;;;;;;;;;;;;;;;;;1006853;29;1033;-27
2021/12/18 03:45:45;;;;;;;;;;;;;;;;;;998885;29;1342;-27
2021/12/18 03:46:15;;;;;;;;;;;;;;;;;;1002893;29;1110;-28
2021/12/18 03:46:46;;;;;;;;;;;;;;;;;;1003076;29;935;-27
2021/12/18 03:47:16;;;;;;;;;;;;;;;;;;1002666;29;1198;-28
2021/12/18 03:47:47;;;;;;;;;;;;;;;;;;1011376;29;994;-27
2021/12/18 03:48:18;;;;;;;;;;;;;;;;;;1011441;29;918;-28
2021/12/18 03:48:48;;;;;;;;;;;;;;;;;;1011481;29;856;-28
2021/12/18 03:49:19;;;;;;;;;;;;;;;;;;1011521;29;1048;-28
2021/12/18 03:49:49;;;;;;;;;;;;;;;;;;1009975;29;1454;-28
2021/12/18 03:50:20;;;;;;;;;;;;;;;;;;1010543;29;1030;-27
2021/12/18 03:50:52;;;;;;;;;;;;;;;;;;1010373;29;1198;-27
2021/12/18 03:51:22;;;;;;;;;;;;;;;;;;1006520;29;1041;-28
2021/12/18 03:51:53;;;;;;;;;;;;;;;;;;1006808;29;1041;-28
2021/12/18 03:52:24;;;;;;;;;;;;;;;;;;1006052;29;1319;-28
2021/12/18 03:52:55;;;;;;;;;;;;;;;;;;1007015;29;1075;-28
2021/12/18 03:53:26;;;;;;;;;;;;;;;;;;1010538;29;993;-28
2021/12/18 03:53:56;;;;;;;;;;;;;;;;;;1009561;29;1438;-28
2021/12/18 03:54:26;;;;;;;;;;;;;;;;;;1011182;29;1094;-27
2021/12/18 03:54:59;;;;;;;;;;;;;;;;;;1006504;29;1303;-27
2021/12/18 03:55:29;;;;;;;;;;;;;;;;;;1006610;29;1931;-27
2021/12/18 03:56:00;;;;;;;;;;;;;;;;;;1006654;29;1710;-27
2021/12/18 03:56:30;;;;;;;;;;;;;;;;;;1006261;29;1407;-27
2021/12/18 03:57:01;;;;;;;;;;;;;;;;;;1011055;29;1308;-28
2021/12/18 03:57:32;;;;;;;;;;;;;;;;;;1002810;29;1342;-27
2021/12/18 03:58:02;;;;;;;;;;;;;;;;;;998860;29;1041;-28
2021/12/18 03:58:33;;;;;;;;;;;;;;;;;;995392;29;1107;-28
2021/12/18 03:59:04;;;;;;;;;;;;;;;;;;994994;29;1320;-28
2021/12/18 03:59:34;;;;;;;;;;;;;;;;;;999285;29;1181;-28
2021/12/18 04:00:08;;;;;;;;;;;;;;;;;;1002974;29;982;-28
2021/12/18 04:00:42;;;;;;;;;;;;;;;;;;1002895;29;859;-28
2021/12/18 04:01:13;;;;;;;;;;;;;;;;;;1002876;29;1193;-28
2021/12/18 04:01:44;;;;;;;;;;;;;;;;;;1002293;29;1415;-27
2021/12/18 04:02:14;;;;;;;;;;;;;;;;;;1003789;29;1176;-27
2021/12/18 04:02:45;;;;;;;;;;;;;;;;;;1010750;29;871;-28
2021/12/18 04:03:15;;;;;;;;;;;;;;;;;;1010538;29;1070;-28
2021/12/18 04:03:45;;;;;;;;;;;;;;;;;;1011422;29;844;-28
2021/12/18 04:04:16;;;;;;;;;;;;;;;;;;1011442;29;796;-27
2021/12/18 04:04:46;;;;;;;;;;;;;;;;;;1011230;29;1091;-28
2021/12/18 04:05:17;;;;;;;;;;;;;;;;;;1011446;29;840;-27
2021/12/18 04:05:48;;;;;;;;;;;;;;;;;;1011081;29;1445;-28
2021/12/18 04:06:19;;;;;;;;;;;;;;;;;;1010343;29;1059;-28
2021/12/18 04:06:50;;;;;;;;;;;;;;;;;;1010571;29;1025;-27
2021/12/18 04:07:20;;;;;;;;;;;;;;;;;;1009811;29;1474;-28
2021/12/18 04:07:51;;;;;;;;;;;;;;;;;;1010499;29;1060;-27
2021/12/18 04:08:22;;;;;;;;;;;;;;;;;;1011266;29;991;-27
2021/12/18 04:08:52;;;;;;;;;;;;;;;;;;1011262;29;1082;-27
2021/12/18 04:09:23;;;;;;;;;;;;;;;;;;1006713;29;969;-29
2021/12/18 04:09:53;;;;;;;;;;;;;;;;;;1006628;29;1019;-27
2021/12/18 04:10:24;;;;;;;;;;;;;;;;;;1002840;29;1090;-27
2021/12/18 04:10:55;;;;;;;;;;;;;;;;;;1002776;29;1376;-27
2021/12/18 04:11:25;;;;;;;;;;;;;;;;;;1002317;29;1156;-28
2021/12/18 04:11:56;;;;;;;;;;;;;;;;;;999085;29;1237;-27
2021/12/18 04:12:27;;;;;;;;;;;;;;;;;;1006407;29;1211;-27
2021/12/18 04:12:59;;;;;;;;;;;;;;;;;;1002895;29;1071;-27
2021/12/18 04:13:30;;;;;;;;;;;;;;;;;;1002724;29;1207;-27
2021/12/18 04:14:03;;;;;;;;;;;;;;;;;;1002513;29;989;-28
2021/12/18 04:14:33;;;;;;;;;;;;;;;;;;1000485;29;1087;-27
2021/12/18 04:15:04;;;;;;;;;;;;;;;;;;1008083;29;935;-27
2021/12/18 04:15:36;;;;;;;;;;;;;;;;;;1011194;29;2033;-27
2021/12/18 04:16:07;;;;;;;;;;;;;;;;;;999678;29;1154;-28
2021/12/18 04:16:38;;;;;;;;;;;;;;;;;;999597;29;1061;-27
2021/12/18 04:17:08;;;;;;;;;;;;;;;;;;999470;29;1057;-27
2021/12/18 04:17:39;;;;;;;;;;;;;;;;;;995331;29;1464;-28
2021/12/18 04:18:09;;;;;;;;;;;;;;;;;;996076;29;1651;-28
2021/12/18 04:18:40;;;;;;;;;;;;;;;;;;1007417;29;948;-28
2021/12/18 04:19:11;;;;;;;;;;;;;;;;;;999603;29;1059;-28
2021/12/18 04:19:41;;;;;;;;;;;;;;;;;;999841;29;1075;-28
2021/12/18 04:20:12;;;;;;;;;;;;;;;;;;999682;29;1064;-28
2021/12/18 04:20:43;;;;;;;;;;;;;;;;;;999720;29;1055;-28
2021/12/18 04:21:13;;;;;;;;;;;;;;;;;;1003642;29;1023;-28
2021/12/18 04:21:44;;;;;;;;;;;;;;;;;;1003333;29;1319;-28